Time;durP1;ratioP1;P1;durP2;ratioP2;P2;SDS_P1;SDS_P2;PMS_P1;PMS_P2;Temp;Humidity;BMP_temperature;BMP_pressure;BME280_temperature;BME280_humidity;BME280_pressure;Samples;Min_cycle;Max_cycle;Signal;HPM_P1;HPM_P2
2022/11/23 00:01:17;;;;;;;9.77;7.27;;;5.70;99.90;;;;;;5072312;28;20445;-76
2022/11/23 00:03:47;;;;;;;12.63;8.47;;;5.70;99.90;;;;;;5072323;28;20469;-76
2022/11/23 00:06:16;;;;;;;12.17;8.20;;;5.70;99.90;;;;;;5073794;28;20851;-76
2022/11/23 00:08:45;;;;;;;8.60;7.70;;;5.70;99.90;;;;;;5073383;28;20440;-76
2022/11/23 00:11:13;;;;;;;9.53;7.90;;;5.70;99.90;;;;;;5073981;28;20603;-76
2022/11/23 00:13:42;;;;;;;8.33;7.53;;;5.70;99.90;;;;;;5073259;28;20477;-76
2022/11/23 00:16:13;;;;;;;8.30;7.40;;;5.70;99.90;;;;;;5072002;28;20444;-76
2022/11/23 00:18:43;;;;;;;12.27;8.50;;;5.80;99.90;;;;;;5072366;28;20456;-76
2022/11/23 00:21:13;;;;;;;10.80;7.97;;;5.80;99.90;;;;;;5073968;28;20421;-76
2022/11/23 00:23:41;;;;;;;8.60;7.60;;;5.80;99.90;;;;;;5073272;28;20464;-76
2022/11/23 00:26:10;;;;;;;8.87;7.67;;;5.80;99.90;;;;;;5072021;28;20942;-76
2022/11/23 00:28:39;;;;;;;9.77;8.50;;;5.80;99.90;;;;;;5073455;28;20486;-76
2022/11/23 00:31:10;;;;;;;11.27;8.00;;;5.80;99.90;;;;;;5072856;28;20487;-76
2022/11/23 00:33:38;;;;;;;10.47;8.10;;;5.80;99.90;;;;;;5072051;28;20476;-76
2022/11/23 00:36:11;;;;;;;10.30;8.13;;;5.80;99.90;;;;;;5072319;28;20441;-76
2022/11/23 00:38:41;;;;;;;9.70;8.70;;;5.80;99.90;;;;;;5072167;28;20934;-76
2022/11/23 00:41:11;;;;;;;9.53;8.47;;;5.80;99.90;;;;;;5073724;28;20466;-76
2022/11/23 00:43:39;;;;;;;11.50;9.00;;;5.80;99.90;;;;;;5073548;28;20468;-76
2022/11/23 00:46:10;;;;;;;10.00;8.40;;;5.90;99.90;;;;;;5072334;28;20473;-76
2022/11/23 00:48:38;;;;;;;11.23;8.23;;;5.80;99.90;;;;;;5072021;28;20444;-76
2022/11/23 00:51:09;;;;;;;10.60;7.93;;;5.80;99.90;;;;;;5073319;28;20460;-76
2022/11/23 00:53:39;;;;;;;9.67;8.47;;;5.90;99.90;;;;;;5071926;28;20477;-76
2022/11/23 00:56:08;;;;;;;10.33;8.47;;;5.80;99.90;;;;;;5073928;28;20445;-76
2022/11/23 00:58:38;;;;;;;11.77;8.07;;;5.90;99.90;;;;;;5072227;28;20478;-77
2022/11/23 01:01:09;;;;;;;8.83;7.93;;;5.90;99.90;;;;;;5075089;28;20835;-76
2022/11/23 01:03:39;;;;;;;11.30;8.83;;;5.90;99.90;;;;;;5074100;28;20464;-77
2022/11/23 01:06:11;;;;;;;12.67;8.80;;;5.90;99.90;;;;;;5073565;28;20441;-76
2022/11/23 01:08:40;;;;;;;8.83;7.77;;;5.90;99.90;;;;;;5077539;28;20451;-76
2022/11/23 01:11:10;;;;;;;11.57;8.20;;;5.90;99.90;;;;;;5077794;28;20441;-76
2022/11/23 01:13:40;;;;;;;9.43;8.60;;;6.00;99.90;;;;;;5080391;28;20513;-76
2022/11/23 01:16:13;;;;;;;9.60;8.43;;;6.00;99.90;;;;;;5085134;28;20448;-76
2022/11/23 01:18:45;;;;;;;9.70;8.70;;;6.00;99.90;;;;;;5086671;28;20456;-76
2022/11/23 01:21:14;;;;;;;9.10;7.97;;;6.00;99.90;;;;;;5087803;28;20537;-76
2022/11/23 01:23:42;;;;;;;9.60;7.53;;;6.00;99.90;;;;;;5084959;28;20461;-76
2022/11/23 01:26:11;;;;;;;9.83;8.23;;;6.00;99.90;;;;;;5079565;28;20503;-76
2022/11/23 01:28:40;;;;;;;10.43;8.03;;;6.00;99.90;;;;;;5079943;28;20459;-76
2022/11/23 01:31:10;;;;;;;10.60;7.93;;;6.00;99.90;;;;;;5082118;28;20490;-76
2022/11/23 01:33:38;;;;;;;9.07;8.17;;;6.00;99.90;;;;;;5078287;28;20484;-76
2022/11/23 01:36:10;;;;;;;9.33;8.30;;;6.00;99.90;;;;;;5077982;28;20540;-76
2022/11/23 01:38:39;;;;;;;9.20;8.30;;;6.00;99.90;;;;;;5078497;28;20428;-77
2022/11/23 01:41:09;;;;;;;12.57;8.17;;;6.00;99.90;;;;;;5076733;28;20444;-76
2022/11/23 01:43:37;;;;;;;8.77;7.80;;;6.10;99.90;;;;;;5078113;28;20461;-76
2022/11/23 01:46:06;;;;;;;9.30;7.90;;;6.00;99.90;;;;;;5077709;28;20511;-76
2022/11/23 01:48:40;;;;;;;8.33;7.47;;;6.00;99.90;;;;;;5079371;28;20518;-76
2022/11/23 01:51:12;;;;;;;8.73;7.23;;;6.00;99.90;;;;;;5078424;28;20457;-76
2022/11/23 01:53:42;;;;;;;10.27;8.00;;;6.10;99.90;;;;;;5076620;28;20824;-76
2022/11/23 01:56:14;;;;;;;9.00;8.00;;;6.10;99.90;;;;;;5074966;28;20437;-76
2022/11/23 01:58:47;;;;;;;11.27;8.30;;;6.10;99.90;;;;;;5074803;28;20464;-76
2022/11/23 02:01:15;;;;;;;8.50;7.70;;;6.10;99.90;;;;;;5074712;28;20543;-76
2022/11/23 02:03:46;;;;;;;7.73;6.93;;;6.10;99.90;;;;;;5075085;28;20466;-76
2022/11/23 02:06:17;;;;;;;9.67;7.27;;;6.10;99.90;;;;;;5074468;28;20464;-76
2022/11/23 02:08:47;;;;;;;9.90;7.30;;;6.10;99.90;;;;;;5074365;28;20444;-76
2022/11/23 02:11:16;;;;;;;8.17;7.30;;;6.10;99.90;;;;;;5074425;28;20441;-76
2022/11/23 02:13:47;;;;;;;8.53;7.37;;;6.10;99.90;;;;;;5074246;28;20469;-76
2022/11/23 02:16:16;;;;;;;9.17;8.00;;;6.10;99.90;;;;;;5074273;28;20549;-76
2022/11/23 02:18:48;;;;;;;7.87;7.07;;;6.10;99.90;;;;;;5074247;28;20863;-76
2022/11/23 02:21:19;;;;;;;8.60;7.70;;;6.10;99.90;;;;;;5074514;28;20834;-76
2022/11/23 02:23:55;;;;;;;9.13;7.30;;;6.20;99.90;;;;;;5075247;28;20489;-76
2022/11/23 02:26:27;;;;;;;9.37;7.00;;;6.20;99.90;;;;;;5073968;28;20934;-76
2022/11/23 02:29:00;;;;;;;8.83;7.23;;;6.20;99.90;;;;;;5075611;28;20454;-76
2022/11/23 02:31:31;;;;;;;8.40;7.17;;;6.20;99.90;;;;;;5073867;28;20437;-76
2022/11/23 02:33:59;;;;;;;8.67;7.10;;;6.20;99.90;;;;;;5073757;28;20476;-76
2022/11/23 02:36:38;;;;;;;8.20;7.40;;;6.20;99.90;;;;;;5073768;28;20532;-76
2022/11/23 02:39:09;;;;;;;7.83;6.77;;;6.20;99.90;;;;;;5075297;28;20458;-76
2022/11/23 02:41:42;;;;;;;10.40;7.27;;;6.20;99.90;;;;;;5074473;28;20540;-76
2022/11/23 02:44:25;;;;;;;9.80;7.83;;;6.20;99.90;;;;;;5073627;28;20469;-76
2022/11/23 02:46:54;;;;;;;10.70;6.90;;;6.30;99.90;;;;;;5074033;28;20448;-76
2022/11/23 02:49:22;;;;;;;9.80;6.70;;;6.30;99.90;;;;;;5073583;28;20474;-76
2022/11/23 02:51:51;;;;;;;8.23;7.00;;;6.30;99.90;;;;;;5073552;28;20536;-76
2022/11/23 02:54:19;;;;;;;8.57;6.30;;;6.30;99.90;;;;;;5073435;28;20477;-76
2022/11/23 02:56:49;;;;;;;6.93;6.23;;;6.30;99.90;;;;;;5075152;28;20831;-76
2022/11/23 02:59:18;;;;;;;7.40;6.70;;;6.30;99.90;;;;;;5074000;28;20462;-76
2022/11/23 03:01:51;;;;;;;10.80;6.70;;;6.30;99.90;;;;;;5073327;28;20850;-76
2022/11/23 03:04:19;;;;;;;8.30;6.50;;;6.30;99.90;;;;;;5074419;28;20488;-76
2022/11/23 03:06:55;;;;;;;7.00;6.30;;;6.40;99.90;;;;;;5073306;28;20494;-77
2022/11/23 03:09:24;;;;;;;7.93;6.70;;;6.30;99.90;;;;;;5073275;28;20552;-76
2022/11/23 03:11:55;;;;;;;8.27;6.43;;;6.40;99.90;;;;;;5074457;28;20444;-76
2022/11/23 03:14:25;;;;;;;6.77;6.07;;;6.40;99.90;;;;;;5073091;28;20473;-77
2022/11/23 03:16:58;;;;;;;6.73;5.70;;;6.40;99.90;;;;;;5073061;28;20855;-76
2022/11/23 03:19:30;;;;;;;6.20;5.60;;;6.40;99.90;;;;;;5074512;28;20472;-76
2022/11/23 03:21:58;;;;;;;8.03;5.67;;;6.40;99.90;;;;;;5072824;28;20494;-77
2022/11/23 03:24:30;;;;;;;6.43;5.60;;;6.50;99.90;;;;;;5072810;28;20465;-76
2022/11/23 03:27:02;;;;;;;7.37;6.23;;;6.50;99.90;;;;;;5073452;28;20434;-77
2022/11/23 03:29:31;;;;;;;7.60;6.00;;;6.50;99.90;;;;;;5072976;28;20456;-77
2022/11/23 03:32:05;;;;;;;7.90;5.70;;;6.50;99.90;;;;;;5072910;28;20972;-76
2022/11/23 03:34:33;;;;;;;7.40;5.70;;;6.50;99.90;;;;;;5072817;28;20479;-76
2022/11/23 03:37:02;;;;;;;7.07;6.03;;;6.50;99.90;;;;;;5072740;28;20449;-76
2022/11/23 03:39:31;;;;;;;7.53;6.17;;;6.60;99.90;;;;;;5072741;28;20464;-76
2022/11/23 03:42:21;;;;;;;7.97;5.53;;;6.50;99.90;;;;;;5073569;28;20449;-77
2022/11/23 03:44:50;;;;;;;9.70;6.90;;;6.60;99.90;;;;;;5072014;28;20525;-76
2022/11/23 03:47:19;;;;;;;10.80;5.90;;;6.60;99.90;;;;;;5072643;28;20452;-76
2022/11/23 03:49:47;;;;;;;7.23;5.93;;;6.60;99.90;;;;;;5072428;28;20450;-76
2022/11/23 03:52:15;;;;;;;8.00;6.40;;;6.60;99.90;;;;;;5073627;28;20885;-76
2022/11/23 03:54:45;;;;;;;9.40;6.40;;;6.60;99.90;;;;;;5072413;28;20469;-76
2022/11/23 03:57:14;;;;;;;10.10;6.37;;;6.70;99.90;;;;;;5072315;28;20437;-76
2022/11/23 03:59:43;;;;;;;8.73;5.20;;;6.70;99.90;;;;;;5073783;28;20439;-76
2022/11/23 04:02:13;;;;;;;8.00;5.83;;;6.70;99.90;;;;;;5072523;28;20465;-76
2022/11/23 04:04:51;;;;;;;9.80;6.50;;;6.70;99.90;;;;;;5072547;28;20452;-76
2022/11/23 04:07:39;;;;;;;8.70;7.37;;;6.70;99.90;;;;;;5073244;28;20478;-76
2022/11/23 04:10:09;;;;;;;15.87;10.80;;;6.80;99.90;;;;;;5072234;28;20985;-76
2022/11/23 04:12:57;;;;;;;10.30;8.53;;;6.80;99.90;;;;;;5073592;28;20977;-76
2022/11/23 04:15:27;;;;;;;18.97;14.70;;;6.80;99.90;;;;;;5073359;28;20466;-76
2022/11/23 04:17:55;;;;;;;10.03;6.90;;;6.80;99.90;;;;;;5072823;28;20528;-77
2022/11/23 04:20:23;;;;;;;11.70;5.80;;;6.80;99.90;;;;;;5072126;28;20995;-76
2022/11/23 04:22:51;;;;;;;11.30;8.50;;;6.80;99.90;;;;;;5072017;28;20527;-76
2022/11/23 04:25:20;;;;;;;18.07;14.60;;;6.80;99.90;;;;;;5072121;28;20445;-76
2022/11/23 04:27:50;;;;;;;12.40;9.10;;;6.90;99.90;;;;;;5072130;28;20474;-76
2022/11/23 04:30:18;;;;;;;6.90;5.80;;;6.90;99.90;;;;;;5071884;28;20449;-76
2022/11/23 04:32:48;;;;;;;8.40;5.60;;;6.90;99.90;;;;;;5072681;28;20810;-76
2022/11/23 04:35:17;;;;;;;7.10;5.07;;;6.90;99.90;;;;;;5072075;28;20488;-76
2022/11/23 04:37:49;;;;;;;5.80;4.70;;;6.90;99.90;;;;;;5072920;28;20441;-76
2022/11/23 04:40:17;;;;;;;10.73;4.90;;;6.90;99.90;;;;;;5071883;28;20461;-76
2022/11/23 04:42:57;;;;;;;9.47;4.63;;;7.00;99.90;;;;;;5071920;28;20999;-76
2022/11/23 04:45:30;;;;;;;10.30;4.83;;;7.00;99.90;;;;;;5072187;28;20430;-76
2022/11/23 04:48:04;;;;;;;6.80;4.03;;;7.00;99.90;;;;;;5072124;28;20440;-76
2022/11/23 04:50:34;;;;;;;8.13;5.53;;;7.00;99.90;;;;;;5072100;28;20907;-76
2022/11/23 04:53:04;;;;;;;7.97;6.07;;;7.00;99.90;;;;;;5071631;28;20554;-76
2022/11/23 04:55:41;;;;;;;8.70;5.13;;;7.00;99.90;;;;;;5072799;28;20560;-76
2022/11/23 04:58:10;;;;;;;6.00;5.20;;;7.00;99.90;;;;;;5075547;28;20482;-76
2022/11/23 05:00:39;;;;;;;7.93;5.03;;;7.10;99.90;;;;;;5075461;28;20548;-77
2022/11/23 05:03:10;;;;;;;10.20;5.00;;;7.10;99.90;;;;;;5075617;28;20504;-77
2022/11/23 05:05:41;;;;;;;8.90;4.60;;;7.10;99.90;;;;;;5078847;28;20441;-77
2022/11/23 05:08:10;;;;;;;6.93;4.70;;;7.10;99.90;;;;;;5081056;28;20943;-77
2022/11/23 05:11:01;;;;;;;5.23;4.30;;;7.10;99.90;;;;;;5079533;28;20467;-77
2022/11/23 05:13:29;;;;;;;11.10;5.20;;;7.10;99.90;;;;;;5076860;28;21053;-76
2022/11/23 05:15:58;;;;;;;6.00;4.70;;;7.20;99.90;;;;;;5076872;28;20491;-77
2022/11/23 05:18:30;;;;;;;8.80;5.10;;;7.20;99.90;;;;;;5076577;28;20454;-77
2022/11/23 05:20:58;;;;;;;7.03;5.00;;;7.20;99.90;;;;;;5078061;28;20895;-76
2022/11/23 05:23:27;;;;;;;6.23;5.57;;;7.20;99.90;;;;;;5075231;28;20472;-77
2022/11/23 05:25:55;;;;;;;8.10;5.90;;;7.20;99.90;;;;;;5075301;28;20444;-76
2022/11/23 05:28:25;;;;;;;8.93;6.83;;;7.20;99.90;;;;;;5075155;28;20463;-76
2022/11/23 05:31:13;;;;;;;12.20;9.33;;;7.20;99.90;;;;;;5075328;28;20533;-76
2022/11/23 05:33:45;;;;;;;10.97;7.50;;;7.20;99.90;;;;;;5074847;28;20469;-76
2022/11/23 05:36:15;;;;;;;9.73;6.57;;;7.20;99.90;;;;;;5074816;28;20471;-76
2022/11/23 05:38:43;;;;;;;8.40;7.60;;;7.20;99.90;;;;;;5076117;28;20436;-76
2022/11/23 05:41:21;;;;;;;9.77;7.10;;;7.30;99.90;;;;;;5075184;28;20471;-77
2022/11/23 05:43:54;;;;;;;8.57;6.13;;;7.20;99.90;;;;;;5074972;28;20473;-77
2022/11/23 05:46:26;;;;;;;11.17;6.60;;;7.30;99.90;;;;;;5075951;28;20789;-76
2022/11/23 05:48:56;;;;;;;10.07;6.47;;;7.30;99.90;;;;;;5076144;28;20452;-77
2022/11/23 05:51:25;;;;;;;6.73;5.93;;;7.30;99.90;;;;;;5074803;28;20472;-76
2022/11/23 05:53:55;;;;;;;9.57;5.60;;;7.30;99.90;;;;;;5074721;28;20457;-77
2022/11/23 05:56:47;;;;;;;7.87;6.80;;;7.30;99.90;;;;;;5067312;28;20502;-77
2022/11/23 05:59:20;;;;;;;14.63;11.37;;;7.30;99.90;;;;;;5074455;28;20528;-77
2022/11/23 06:01:54;;;;;;;11.10;7.13;;;7.30;99.90;;;;;;5074485;28;20965;-77
2022/11/23 06:04:30;;;;;;;11.73;8.10;;;7.30;99.90;;;;;;5074236;28;20474;-76
2022/11/23 06:07:00;;;;;;;19.90;12.50;;;7.30;99.90;;;;;;5074000;28;20449;-76
2022/11/23 06:09:38;;;;;;;9.40;6.33;;;7.40;99.90;;;;;;5074771;28;20940;-77
2022/11/23 06:12:09;;;;;;;9.70;6.60;;;7.40;99.90;;;;;;5075154;28;20818;-77
2022/11/23 06:14:38;;;;;;;8.47;6.37;;;7.40;99.90;;;;;;5074482;28;20471;-77
2022/11/23 06:17:08;;;;;;;9.07;6.77;;;7.40;99.90;;;;;;5074280;28;20980;-77
2022/11/23 06:19:43;;;;;;;7.90;6.13;;;7.40;99.90;;;;;;5074429;28;20443;-77
2022/11/23 06:22:12;;;;;;;10.60;7.10;;;7.40;99.90;;;;;;5074559;28;20445;-76
2022/11/23 06:24:48;;;;;;;9.53;6.70;;;7.50;99.90;;;;;;5073982;28;20977;-76
2022/11/23 06:27:36;;;;;;;11.80;8.23;;;7.50;99.90;;;;;;5074476;28;20531;-76
2022/11/23 06:30:14;;;;;;;12.70;8.93;;;7.50;99.90;;;;;;5079202;28;20454;-77
2022/11/23 06:32:43;;;;;;;15.20;11.10;;;7.50;99.90;;;;;;5081976;28;20538;-76
2022/11/23 06:35:12;;;;;;;11.57;8.50;;;7.50;99.90;;;;;;5080959;28;20865;-76
2022/11/23 06:37:42;;;;;;;10.73;6.97;;;7.50;99.90;;;;;;5085570;28;20472;-76
2022/11/23 06:40:12;;;;;;;9.73;6.67;;;7.50;99.90;;;;;;5087433;28;20445;-77
2022/11/23 06:42:42;;;;;;;11.20;7.23;;;7.50;99.90;;;;;;5087089;28;20447;-77
2022/11/23 06:45:17;;;;;;;8.37;6.37;;;7.50;99.90;;;;;;5086390;28;20474;-77
2022/11/23 06:47:47;;;;;;;10.13;7.33;;;7.50;99.90;;;;;;5085385;28;20429;-77
2022/11/23 06:50:17;;;;;;;10.30;6.70;;;7.50;99.90;;;;;;5085722;28;20506;-77
2022/11/23 06:52:46;;;;;;;8.20;6.53;;;7.50;99.90;;;;;;5081110;28;20474;-77
2022/11/23 06:55:15;;;;;;;7.83;6.13;;;7.50;99.90;;;;;;5082342;28;20452;-77
2022/11/23 06:57:43;;;;;;;10.67;6.83;;;7.50;99.90;;;;;;5075775;28;20462;-77
2022/11/23 07:00:14;;;;;;;10.90;6.97;;;7.50;99.90;;;;;;5075264;28;20468;-77
2022/11/23 07:02:43;;;;;;;11.53;6.73;;;7.40;99.90;;;;;;5074750;28;20459;-77
2022/11/23 07:05:14;;;;;;;10.03;6.00;;;7.40;99.90;;;;;;5074463;28;20443;-77
2022/11/23 07:07:43;;;;;;;9.70;6.00;;;7.40;99.90;;;;;;5073873;28;20922;-77
2022/11/23 07:10:19;;;;;;;9.17;6.20;;;7.40;99.90;;;;;;5074487;28;20787;-77
2022/11/23 07:12:55;;;;;;;9.27;6.43;;;7.30;99.90;;;;;;5073572;28;20563;-77
2022/11/23 07:15:25;;;;;;;9.27;7.07;;;7.30;99.90;;;;;;5073971;28;20439;-77
2022/11/23 07:17:53;;;;;;;11.70;7.63;;;7.30;99.90;;;;;;5072394;28;20473;-77
2022/11/23 07:20:23;;;;;;;8.93;5.90;;;7.30;99.90;;;;;;5073738;28;20446;-77
2022/11/23 07:23:01;;;;;;;8.80;7.33;;;7.30;99.90;;;;;;5072973;28;20476;-77
2022/11/23 07:25:29;;;;;;;9.90;8.40;;;7.30;99.90;;;;;;5074746;28;20526;-77
2022/11/23 07:28:00;;;;;;;11.03;8.10;;;7.30;99.90;;;;;;5074144;28;20459;-77
2022/11/23 07:30:30;;;;;;;15.97;9.77;;;7.30;99.90;;;;;;5072712;28;20451;-77
2022/11/23 07:33:00;;;;;;;10.00;7.70;;;7.30;99.90;;;;;;5072870;28;20502;-77
2022/11/23 07:35:29;;;;;;;9.83;7.10;;;7.30;99.90;;;;;;5072782;28;21022;-77
2022/11/23 07:37:57;;;;;;;8.83;6.47;;;7.30;99.90;;;;;;5074572;28;20469;-77
2022/11/23 07:40:29;;;;;;;7.13;5.53;;;7.30;99.90;;;;;;5073995;28;20938;-77
2022/11/23 07:43:00;;;;;;;9.07;5.80;;;7.30;99.90;;;;;;5072637;28;20503;-77
2022/11/23 07:45:28;;;;;;;8.73;5.70;;;7.30;99.90;;;;;;5072730;28;20811;-77
2022/11/23 07:47:59;;;;;;;9.23;5.10;;;7.30;99.90;;;;;;5072457;28;20517;-77
2022/11/23 07:50:28;;;;;;;9.67;6.33;;;7.30;99.90;;;;;;5073534;28;20436;-77
2022/11/23 07:52:57;;;;;;;14.40;8.73;;;7.30;99.90;;;;;;5073836;28;20469;-76
2022/11/23 07:55:25;;;;;;;19.63;14.30;;;7.30;99.90;;;;;;5072375;28;20960;-76
2022/11/23 07:57:55;;;;;;;9.43;7.13;;;7.30;99.90;;;;;;5072229;28;20478;-77
2022/11/23 08:00:23;;;;;;;13.43;6.63;;;7.30;99.90;;;;;;5074161;28;20440;-77
2022/11/23 08:02:52;;;;;;;9.73;5.70;;;7.40;99.90;;;;;;5073688;28;20563;-77
2022/11/23 08:05:40;;;;;;;8.60;4.60;;;7.30;99.90;;;;;;5073807;28;20437;-77
2022/11/23 08:08:08;;;;;;;8.50;4.90;;;7.40;99.90;;;;;;5072270;28;20486;-77
2022/11/23 08:10:36;;;;;;;8.43;5.13;;;7.40;99.90;;;;;;5073602;28;20456;-77
2022/11/23 08:13:13;;;;;;;11.27;5.40;;;7.40;99.90;;;;;;5078286;28;21043;-77
2022/11/23 08:15:41;;;;;;;8.23;5.43;;;7.40;99.90;;;;;;5075571;28;20865;-77
2022/11/23 08:18:10;;;;;;;8.93;5.27;;;7.40;99.90;;;;;;5074578;28;20981;-77
2022/11/23 08:20:38;;;;;;;10.63;5.37;;;7.40;99.90;;;;;;5073984;28;20439;-77
2022/11/23 08:23:06;;;;;;;10.53;5.17;;;7.50;99.90;;;;;;5073590;28;20998;-77
2022/11/23 08:25:34;;;;;;;8.40;6.83;;;7.50;99.90;;;;;;5073790;28;20488;-77
2022/11/23 08:28:04;;;;;;;14.17;9.33;;;7.50;99.90;;;;;;5073292;28;20973;-77
2022/11/23 08:30:34;;;;;;;9.30;6.00;;;7.50;99.90;;;;;;5078058;28;20459;-77
2022/11/23 08:33:04;;;;;;;10.57;5.43;;;7.50;99.90;;;;;;5079040;28;21019;-77
2022/11/23 08:35:34;;;;;;;9.03;5.77;;;7.50;99.90;;;;;;5079828;28;20452;-77
2022/11/23 08:38:02;;;;;;;7.83;6.00;;;7.60;99.90;;;;;;5078552;28;20996;-77
2022/11/23 08:40:30;;;;;;;12.60;6.07;;;7.60;99.90;;;;;;5079931;28;20439;-77
2022/11/23 08:42:58;;;;;;;7.27;5.83;;;7.60;99.90;;;;;;5079874;28;20574;-76
2022/11/23 08:45:27;;;;;;;8.87;5.70;;;7.60;99.90;;;;;;5079074;28;20478;-77
2022/11/23 08:47:59;;;;;;;9.33;5.80;;;7.60;99.90;;;;;;5079891;28;20497;-77
2022/11/23 08:50:29;;;;;;;8.00;5.87;;;7.70;99.90;;;;;;5079936;28;20847;-77
2022/11/23 08:52:58;;;;;;;9.00;5.70;;;7.70;99.90;;;;;;5078513;28;20475;-77
2022/11/23 08:55:26;;;;;;;9.33;5.43;;;7.70;99.90;;;;;;5078479;28;20448;-77
2022/11/23 08:57:55;;;;;;;8.07;5.60;;;7.70;99.90;;;;;;5079981;28;20460;-76
2022/11/23 09:00:23;;;;;;;9.23;6.10;;;7.80;99.90;;;;;;5079684;28;20500;-77
2022/11/23 09:02:52;;;;;;;8.07;7.03;;;7.80;99.90;;;;;;5078312;28;20464;-77
2022/11/23 09:05:21;;;;;;;9.70;6.17;;;7.80;99.90;;;;;;5079923;28;20474;-77
2022/11/23 09:07:49;;;;;;;9.00;5.90;;;7.80;99.90;;;;;;5079520;28;20803;-77
2022/11/23 09:10:19;;;;;;;7.40;5.63;;;7.90;99.90;;;;;;5078367;28;20933;-77
2022/11/23 09:12:50;;;;;;;8.70;5.97;;;7.90;99.90;;;;;;5078443;28;20460;-77
2022/11/23 09:15:18;;;;;;;8.50;6.07;;;7.90;99.90;;;;;;5079962;28;20815;-77
2022/11/23 09:17:46;;;;;;;7.47;6.33;;;7.90;99.90;;;;;;5078278;28;20478;-77
2022/11/23 09:20:15;;;;;;;8.97;6.00;;;8.00;99.90;;;;;;5078344;28;20441;-77
2022/11/23 09:22:49;;;;;;;6.53;5.53;;;8.00;99.90;;;;;;5079648;28;20470;-76
2022/11/23 09:25:18;;;;;;;6.60;5.60;;;8.00;99.90;;;;;;5078347;28;20442;-77
2022/11/23 09:27:47;;;;;;;8.83;6.13;;;8.00;99.90;;;;;;5078335;28;20530;-77
2022/11/23 09:30:16;;;;;;;10.40;5.40;;;8.10;99.90;;;;;;5078282;28;20483;-77
2022/11/23 09:32:44;;;;;;;7.83;6.27;;;8.10;99.90;;;;;;5079905;28;20884;-77
2022/11/23 09:35:12;;;;;;;8.17;5.90;;;8.10;99.90;;;;;;5079407;28;20443;-77
2022/11/23 09:37:41;;;;;;;9.30;5.97;;;8.10;99.90;;;;;;5079630;28;20471;-77
2022/11/23 09:40:16;;;;;;;6.63;5.40;;;8.10;99.90;;;;;;5078226;28;21015;-77
2022/11/23 09:43:24;;;;;;;8.63;5.50;;;8.20;99.90;;;;;;5075781;28;20960;-77
2022/11/23 09:45:54;;;;;;;5.27;4.77;;;8.20;99.90;;;;;;5029287;28;20815;-77
2022/11/23 09:48:37;;;;;;;7.47;5.60;;;8.20;99.90;;;;;;5076588;28;20421;-77
2022/11/23 09:51:14;;;;;;;7.63;5.60;;;8.20;99.90;;;;;;5076353;28;20463;-77
2022/11/23 09:53:46;;;;;;;5.60;4.67;;;8.20;99.90;;;;;;5076340;28;20454;-77
2022/11/23 09:56:21;;;;;;;8.73;7.20;;;8.30;99.90;;;;;;5074842;28;20450;-77
2022/11/23 09:58:54;;;;;;;10.70;6.27;;;8.30;99.90;;;;;;5076648;28;20463;-77
2022/11/23 10:01:22;;;;;;;14.20;8.73;;;8.30;99.90;;;;;;5074841;28;20462;-77
2022/11/23 10:03:51;;;;;;;11.10;6.90;;;8.30;99.90;;;;;;5076011;28;20514;-76
2022/11/23 10:06:21;;;;;;;9.87;5.53;;;8.30;99.90;;;;;;5075912;28;20444;-77
2022/11/23 10:09:01;;;;;;;10.63;5.73;;;8.30;99.90;;;;;;5074764;28;20430;-77
2022/11/23 10:11:56;;;;;;;7.10;5.37;;;8.40;99.90;;;;;;5074682;28;20447;-77
2022/11/23 10:14:39;;;;;;;6.97;5.37;;;8.40;99.90;;;;;;5074748;28;20476;-77
2022/11/23 10:17:15;;;;;;;7.40;5.50;;;8.40;99.90;;;;;;5074444;28;20433;-77
2022/11/23 10:19:57;;;;;;;9.47;4.50;;;8.40;99.90;;;;;;5074375;28;20464;-77
2022/11/23 10:22:30;;;;;;;9.67;5.20;;;8.50;99.90;;;;;;5075947;28;20505;-77
2022/11/23 10:25:02;;;;;;;14.70;9.90;;;8.50;99.90;;;;;;5075928;28;20839;-77
2022/11/23 10:27:32;;;;;;;10.80;7.50;;;8.50;99.90;;;;;;5075178;28;20449;-77
2022/11/23 10:30:01;;;;;;;8.07;4.47;;;8.50;99.90;;;;;;5074072;28;20488;-77
2022/11/23 10:32:32;;;;;;;8.40;4.43;;;8.50;99.90;;;;;;5075567;28;20441;-77
2022/11/23 10:35:05;;;;;;;6.60;4.43;;;8.60;99.90;;;;;;5073972;28;20816;-77
2022/11/23 10:37:34;;;;;;;6.30;3.77;;;8.60;99.90;;;;;;5074084;28;20441;-77
2022/11/23 10:40:02;;;;;;;6.93;3.90;;;8.60;99.90;;;;;;5075063;28;20477;-77
2022/11/23 10:42:37;;;;;;;5.60;4.13;;;8.70;99.90;;;;;;5075233;28;20441;-77
2022/11/23 10:45:06;;;;;;;6.97;4.20;;;8.70;99.90;;;;;;5073771;28;20513;-77
2022/11/23 10:47:38;;;;;;;7.27;4.57;;;8.70;99.90;;;;;;5073786;28;20540;-77
2022/11/23 10:50:26;;;;;;;6.80;4.40;;;8.70;99.90;;;;;;5075171;28;20425;-77
2022/11/23 10:52:56;;;;;;;6.60;4.50;;;8.70;99.90;;;;;;5074094;28;20551;-76
2022/11/23 10:55:28;;;;;;;8.90;4.50;;;8.80;99.90;;;;;;5073426;28;20966;-77
2022/11/23 10:57:57;;;;;;;6.73;4.43;;;8.80;99.90;;;;;;5073401;28;20444;-77
2022/11/23 11:00:27;;;;;;;7.90;5.30;;;8.90;99.90;;;;;;5073463;28;20452;-77
2022/11/23 11:02:59;;;;;;;7.77;4.70;;;8.90;99.90;;;;;;5073333;28;20563;-77
2022/11/23 11:05:33;;;;;;;6.83;4.30;;;9.00;99.90;;;;;;5073207;28;20468;-77
2022/11/23 11:08:23;;;;;;;6.37;4.30;;;9.00;99.90;;;;;;5074353;28;20479;-77
2022/11/23 11:10:58;;;;;;;5.57;4.30;;;9.00;99.90;;;;;;5073353;28;20445;-77
2022/11/23 11:13:31;;;;;;;6.27;5.37;;;9.10;99.90;;;;;;5074796;28;20460;-77
2022/11/23 11:16:01;;;;;;;6.80;4.67;;;9.10;99.90;;;;;;5074837;28;20420;-77
2022/11/23 11:18:31;;;;;;;7.90;4.63;;;9.10;99.90;;;;;;5075219;28;20461;-77
2022/11/23 11:21:02;;;;;;;7.47;5.27;;;9.10;99.90;;;;;;5076471;28;20452;-77
2022/11/23 11:23:31;;;;;;;7.63;5.00;;;9.20;99.90;;;;;;5076774;28;20823;-77
2022/11/23 11:26:10;;;;;;;9.63;5.53;;;9.20;99.90;;;;;;5075135;28;20455;-77
2022/11/23 11:28:42;;;;;;;6.27;4.60;;;9.20;99.90;;;;;;5076860;28;20425;-77
2022/11/23 11:31:39;;;;;;;9.63;5.47;;;9.30;99.90;;;;;;5074904;28;20445;-77
2022/11/23 11:34:17;;;;;;;6.47;5.20;;;9.30;99.90;;;;;;5066299;28;20497;-77
2022/11/23 11:36:51;;;;;;;9.43;5.60;;;9.30;99.90;;;;;;5076315;28;20436;-77
2022/11/23 11:39:25;;;;;;;9.60;6.10;;;9.30;99.90;;;;;;5080242;28;20461;-77
2022/11/23 11:41:56;;;;;;;12.83;6.93;;;9.30;99.90;;;;;;5088533;28;20507;-77
2022/11/23 11:44:27;;;;;;;7.13;5.17;;;9.40;99.90;;;;;;5091221;28;20453;-77
2022/11/23 11:47:00;;;;;;;10.73;5.40;;;9.40;99.90;;;;;;5088822;28;20623;-77
2022/11/23 11:49:31;;;;;;;14.37;5.23;;;9.50;99.90;;;;;;5086340;28;20418;-77
2022/11/23 11:52:07;;;;;;;5.90;5.10;;;9.60;99.90;;;;;;5080210;28;20456;-76
2022/11/23 11:54:42;;;;;;;8.67;5.50;;;9.60;99.90;;;;;;5085822;28;20471;-76
2022/11/23 11:57:17;;;;;;;8.93;5.03;;;9.60;99.90;;;;;;5087931;28;20420;-76
2022/11/23 11:59:51;;;;;;;12.90;7.00;;;9.60;99.90;;;;;;5083095;28;20496;-76
2022/11/23 12:02:24;;;;;;;9.33;5.33;;;9.70;99.90;;;;;;5074901;28;20528;-77
2022/11/23 12:05:00;;;;;;;7.30;4.70;;;9.70;99.90;;;;;;5074319;28;20527;-78
2022/11/23 12:07:31;;;;;;;5.13;3.70;;;9.70;99.90;;;;;;5074402;28;20417;-77
2022/11/23 12:10:06;;;;;;;10.17;6.33;;;9.70;99.90;;;;;;5073398;28;20437;-77
2022/11/23 12:12:36;;;;;;;9.03;5.80;;;9.70;99.90;;;;;;5074317;28;20433;-77
2022/11/23 12:15:16;;;;;;;11.40;7.50;;;9.80;99.90;;;;;;5074301;28;20453;-76
2022/11/23 12:18:21;;;;;;;10.40;4.87;;;9.80;99.90;;;;;;5073607;28;20806;-77
2022/11/23 12:20:57;;;;;;;8.67;5.00;;;9.80;99.90;;;;;;5073711;28;20456;-77
2022/11/23 12:23:37;;;;;;;20.00;12.77;;;9.90;99.90;;;;;;5073719;28;20464;-77
2022/11/23 12:26:21;;;;;;;7.87;4.17;;;9.90;99.90;;;;;;5072253;28;20433;-77
2022/11/23 12:29:10;;;;;;;7.90;4.80;;;10.00;99.90;;;;;;5072450;28;20837;-77
2022/11/23 12:31:43;;;;;;;7.67;4.87;;;10.00;99.90;;;;;;5072747;28;20464;-77
2022/11/23 12:34:37;;;;;;;8.73;4.33;;;10.00;99.90;;;;;;5073996;28;20811;-77
2022/11/23 12:37:21;;;;;;;8.00;3.87;;;10.00;99.90;;;;;;5072031;28;20434;-77
2022/11/23 12:40:03;;;;;;;9.30;3.60;;;10.10;99.90;;;;;;5076361;28;20476;-77
2022/11/23 12:42:38;;;;;;;6.83;4.33;;;10.10;99.90;;;;;;5081193;28;20939;-77
2022/11/23 12:45:27;;;;;;;6.37;3.87;;;10.10;99.90;;;;;;5076637;28;20441;-77
2022/11/23 12:48:07;;;;;;;8.00;3.50;;;10.10;99.90;;;;;;5074287;28;20911;-77
2022/11/23 12:50:42;;;;;;;6.97;2.90;;;10.20;99.90;;;;;;5076606;28;20479;-77
2022/11/23 12:53:28;;;;;;;6.60;2.70;;;10.20;99.90;;;;;;5075635;28;20977;-77
2022/11/23 12:56:07;;;;;;;8.67;3.10;;;10.20;99.90;;;;;;5075224;28;20451;-77
2022/11/23 12:58:38;;;;;;;5.80;3.10;;;10.30;99.90;;;;;;5074499;28;20921;-76
2022/11/23 13:01:13;;;;;;;9.70;4.77;;;10.30;99.90;;;;;;5073158;28;20469;-76
2022/11/23 13:04:04;;;;;;;9.57;3.80;;;10.40;99.90;;;;;;5073648;28;20483;-76
2022/11/23 13:07:19;;;;;;;8.83;3.03;;;10.40;99.90;;;;;;5040833;28;20941;-76
2022/11/23 13:10:39;;;;;;;6.50;3.03;;;10.40;99.90;;;;;;5073026;28;20409;-77
2022/11/23 13:13:21;;;;;;;10.37;5.20;;;10.40;99.90;;;;;;5011201;28;20459;-77
2022/11/23 13:16:08;;;;;;;8.43;2.70;;;10.40;99.90;;;;;;5069485;28;20930;-77
2022/11/23 13:18:55;;;;;;;6.60;2.60;;;10.40;99.90;;;;;;5075551;28;20937;-77
2022/11/23 13:21:36;;;;;;;10.37;5.60;;;10.40;99.90;;;;;;5076668;28;20417;-77